sensor_id;sensor_type;location;lat;lon;timestamp;temperature;humidity
77247;SHT35;66279;42.820;23.374;2023-02-11T00:01:27;-8.87;80.41
77247;SHT35;66279;42.820;23.374;2023-02-11T00:03:54;-8.87;80.20
77247;SHT35;66279;42.820;23.374;2023-02-11T00:06:20;-8.88;80.63
77247;SHT35;66279;42.820;23.374;2023-02-11T00:08:45;-8.85;80.78
77247;SHT35;66279;42.820;23.374;2023-02-11T00:11:13;-8.87;80.36
77247;SHT35;66279;42.820;23.374;2023-02-11T00:13:39;-8.87;80.17
77247;SHT35;66279;42.820;23.374;2023-02-11T00:16:07;-8.91;79.43
77247;SHT35;66279;42.820;23.374;2023-02-11T00:18:33;-9.02;79.78
77247;SHT35;66279;42.820;23.374;2023-02-11T00:20:58;-9.03;79.59
77247;SHT35;66279;42.820;23.374;2023-02-11T00:23:24;-9.05;80.00
77247;SHT35;66279;42.820;23.374;2023-02-11T00:25:49;-9.00;80.59
77247;SHT35;66279;42.820;23.374;2023-02-11T00:28:14;-9.05;80.09
77247;SHT35;66279;42.820;23.374;2023-02-11T00:30:40;-9.08;79.72
77247;SHT35;66279;42.820;23.374;2023-02-11T00:33:06;-9.08;79.85
77247;SHT35;66279;42.820;23.374;2023-02-11T00:35:31;-9.15;80.49
77247;SHT35;66279;42.820;23.374;2023-02-11T00:37:57;-9.15;80.12
77247;SHT35;66279;42.820;23.374;2023-02-11T00:40:22;-9.22;79.97
77247;SHT35;66279;42.820;23.374;2023-02-11T00:42:48;-9.22;79.62
77247;SHT35;66279;42.820;23.374;2023-02-11T00:45:13;-9.26;79.83
77247;SHT35;66279;42.820;23.374;2023-02-11T00:47:39;-9.27;80.26
77247;SHT35;66279;42.820;23.374;2023-02-11T00:50:05;-9.31;80.59
77247;SHT35;66279;42.820;23.374;2023-02-11T00:52:32;-9.33;81.57
77247;SHT35;66279;42.820;23.374;2023-02-11T00:54:57;-9.30;81.65
77247;SHT35;66279;42.820;23.374;2023-02-11T00:57:23;-9.22;80.92
77247;SHT35;66279;42.820;23.374;2023-02-11T00:59:48;-9.22;80.86
77247;SHT35;66279;42.820;23.374;2023-02-11T01:02:15;-9.27;80.35
77247;SHT35;66279;42.820;23.374;2023-02-11T01:04:41;-9.30;80.70
77247;SHT35;66279;42.820;23.374;2023-02-11T01:07:06;-9.37;79.82
77247;SHT35;66279;42.820;23.374;2023-02-11T01:09:32;-9.47;80.10
77247;SHT35;66279;42.820;23.374;2023-02-11T01:11:58;-9.61;80.86
77247;SHT35;66279;42.820;23.374;2023-02-11T01:14:23;-9.61;81.34
77247;SHT35;66279;42.820;23.374;2023-02-11T01:16:49;-9.68;81.45
77247;SHT35;66279;42.820;23.374;2023-02-11T01:19:14;-9.70;81.48
77247;SHT35;66279;42.820;23.374;2023-02-11T01:21:40;-9.65;81.66
77247;SHT35;66279;42.820;23.374;2023-02-11T01:24:05;-9.70;81.01
77247;SHT35;66279;42.820;23.374;2023-02-11T01:26:31;-9.79;80.45
77247;SHT35;66279;42.820;23.374;2023-02-11T01:28:56;-9.85;81.22
77247;SHT35;66279;42.820;23.374;2023-02-11T01:31:24;-9.85;82.96
77247;SHT35;66279;42.820;23.374;2023-02-11T01:33:49;-9.77;82.79
77247;SHT35;66279;42.820;23.374;2023-02-11T01:36:15;-9.70;82.38
77247;SHT35;66279;42.820;23.374;2023-02-11T01:38:40;-9.75;81.55
77247;SHT35;66279;42.820;23.374;2023-02-11T01:41:09;-9.85;81.17
77247;SHT35;66279;42.820;23.374;2023-02-11T01:43:38;-9.95;82.31
77247;SHT35;66279;42.820;23.374;2023-02-11T01:46:33;-9.95;82.07
77247;SHT35;66279;42.820;23.374;2023-02-11T01:49:11;-9.95;81.83
77247;SHT35;66279;42.820;23.374;2023-02-11T01:54:29;-9.92;81.78
77247;SHT35;66279;42.820;23.374;2023-02-11T01:57:17;-9.97;82.70
77247;SHT35;66279;42.820;23.374;2023-02-11T02:02:51;-9.94;83.02
77247;SHT35;66279;42.820;23.374;2023-02-11T02:05:39;-9.98;82.08
77247;SHT35;66279;42.820;23.374;2023-02-11T02:08:24;-10.09;81.80
77247;SHT35;66279;42.820;23.374;2023-02-11T02:10:54;-10.22;81.87
77247;SHT35;66279;42.820;23.374;2023-02-11T02:13:22;-10.33;82.32
77247;SHT35;66279;42.820;23.374;2023-02-11T02:15:55;-10.32;82.78
77247;SHT35;66279;42.820;23.374;2023-02-11T02:41:11;-10.36;82.49
77247;SHT35;66279;42.820;23.374;2023-02-11T02:43:41;-10.41;83.12
77247;SHT35;66279;42.820;23.374;2023-02-11T02:46:27;-10.36;84.31
77247;SHT35;66279;42.820;23.374;2023-02-11T02:48:54;-10.37;83.60
77247;SHT35;66279;42.820;23.374;2023-02-11T03:02:05;-10.65;82.31
77247;SHT35;66279;42.820;23.374;2023-02-11T03:05:00;-10.74;81.77
77247;SHT35;66279;42.820;23.374;2023-02-11T03:07:44;-10.70;83.08
77247;SHT35;66279;42.820;23.374;2023-02-11T03:10:26;-10.68;83.48
77247;SHT35;66279;42.820;23.374;2023-02-11T03:12:54;-10.68;83.53
77247;SHT35;66279;42.820;23.374;2023-02-11T03:15:23;-10.63;83.56
77247;SHT35;66279;42.820;23.374;2023-02-11T03:17:51;-10.57;83.67
77247;SHT35;66279;42.820;23.374;2023-02-11T03:20:19;-10.56;83.76
77247;SHT35;66279;42.820;23.374;2023-02-11T03:22:50;-10.56;82.94
77247;SHT35;66279;42.820;23.374;2023-02-11T03:25:18;-10.64;82.97
77247;SHT35;66279;42.820;23.374;2023-02-11T03:28:08;-10.65;83.14
77247;SHT35;66279;42.820;23.374;2023-02-11T03:30:42;-10.67;82.70
77247;SHT35;66279;42.820;23.374;2023-02-11T03:33:24;-10.71;82.65
77247;SHT35;66279;42.820;23.374;2023-02-11T03:36:03;-10.68;82.89
77247;SHT35;66279;42.820;23.374;2023-02-11T03:38:35;-10.74;82.48
77247;SHT35;66279;42.820;23.374;2023-02-11T03:41:04;-10.71;82.77
77247;SHT35;66279;42.820;23.374;2023-02-11T03:43:37;-10.71;83.50
77247;SHT35;66279;42.820;23.374;2023-02-11T03:46:05;-10.68;83.08
77247;SHT35;66279;42.820;23.374;2023-02-11T03:48:35;-10.70;83.12
77247;SHT35;66279;42.820;23.374;2023-02-11T03:51:06;-10.77;82.89
77247;SHT35;66279;42.820;23.374;2023-02-11T03:53:32;-10.81;83.40
77247;SHT35;66279;42.820;23.374;2023-02-11T03:56:02;-10.91;83.25
77247;SHT35;66279;42.820;23.374;2023-02-11T03:58:29;-11.04;82.85
77247;SHT35;66279;42.820;23.374;2023-02-11T04:00:55;-11.11;83.35
77247;SHT35;66279;42.820;23.374;2023-02-11T04:03:20;-11.14;84.39
77247;SHT35;66279;42.820;23.374;2023-02-11T04:05:46;-11.11;83.38
77247;SHT35;66279;42.820;23.374;2023-02-11T04:08:12;-11.16;82.42
77247;SHT35;66279;42.820;23.374;2023-02-11T04:10:37;-11.16;83.26
77247;SHT35;66279;42.820;23.374;2023-02-11T04:13:03;-11.14;83.69
77247;SHT35;66279;42.820;23.374;2023-02-11T04:15:28;-11.18;84.30
77247;SHT35;66279;42.820;23.374;2023-02-11T04:17:54;-11.15;83.67
77247;SHT35;66279;42.820;23.374;2023-02-11T04:20:19;-11.12;83.31
77247;SHT35;66279;42.820;23.374;2023-02-11T04:22:45;-11.11;84.24
77247;SHT35;66279;42.820;23.374;2023-02-11T04:25:11;-11.08;83.40
77247;SHT35;66279;42.820;23.374;2023-02-11T04:27:36;-11.07;84.01
77247;SHT35;66279;42.820;23.374;2023-02-11T04:30:03;-11.05;84.74
77247;SHT35;66279;42.820;23.374;2023-02-11T04:32:29;-11.02;84.21
77247;SHT35;66279;42.820;23.374;2023-02-11T04:34:55;-11.04;83.86
77247;SHT35;66279;42.820;23.374;2023-02-11T04:37:20;-11.02;84.62
77247;SHT35;66279;42.820;23.374;2023-02-11T04:39:46;-11.05;83.62
77247;SHT35;66279;42.820;23.374;2023-02-11T04:42:11;-11.15;82.70
77247;SHT35;66279;42.820;23.374;2023-02-11T04:44:37;-11.25;84.21
77247;SHT35;66279;42.820;23.374;2023-02-11T04:47:03;-11.25;84.21
77247;SHT35;66279;42.820;23.374;2023-02-11T04:49:28;-11.25;83.88
77247;SHT35;66279;42.820;23.374;2023-02-11T04:51:54;-11.26;83.82
77247;SHT35;66279;42.820;23.374;2023-02-11T04:54:19;-11.36;82.78
77247;SHT35;66279;42.820;23.374;2023-02-11T04:56:46;-11.39;83.22
77247;SHT35;66279;42.820;23.374;2023-02-11T04:59:12;-11.42;83.28
77247;SHT35;66279;42.820;23.374;2023-02-11T05:01:38;-11.51;83.08
77247;SHT35;66279;42.820;23.374;2023-02-11T05:04:04;-11.56;83.93
77247;SHT35;66279;42.820;23.374;2023-02-11T05:06:29;-11.59;83.67
77247;SHT35;66279;42.820;23.374;2023-02-11T05:08:55;-11.51;84.30
77247;SHT35;66279;42.820;23.374;2023-02-11T05:11:22;-11.47;84.35
77247;SHT35;66279;42.820;23.374;2023-02-11T05:13:48;-11.46;83.99
77247;SHT35;66279;42.820;23.374;2023-02-11T05:16:15;-11.44;83.20
77247;SHT35;66279;42.820;23.374;2023-02-11T05:18:43;-11.47;82.87
77247;SHT35;66279;42.820;23.374;2023-02-11T05:21:13;-11.47;83.78
77247;SHT35;66279;42.820;23.374;2023-02-11T05:23:39;-11.43;84.27
77247;SHT35;66279;42.820;23.374;2023-02-11T05:26:05;-11.43;83.86
77247;SHT35;66279;42.820;23.374;2023-02-11T05:28:31;-11.50;83.33
77247;SHT35;66279;42.820;23.374;2023-02-11T05:30:57;-11.50;83.67
77247;SHT35;66279;42.820;23.374;2023-02-11T05:33:23;-11.46;85.41
77247;SHT35;66279;42.820;23.374;2023-02-11T05:35:49;-11.43;84.76
77247;SHT35;66279;42.820;23.374;2023-02-11T05:38:14;-11.44;84.08
77247;SHT35;66279;42.820;23.374;2023-02-11T05:40:40;-11.43;83.94
77247;SHT35;66279;42.820;23.374;2023-02-11T05:43:05;-11.40;84.46
77247;SHT35;66279;42.820;23.374;2023-02-11T05:45:31;-11.42;83.94
77247;SHT35;66279;42.820;23.374;2023-02-11T05:47:57;-11.43;83.40
77247;SHT35;66279;42.820;23.374;2023-02-11T05:50:23;-11.38;84.11
77247;SHT35;66279;42.820;23.374;2023-02-11T05:52:49;-11.28;85.44
77247;SHT35;66279;42.820;23.374;2023-02-11T05:55:14;-11.25;85.16
77247;SHT35;66279;42.820;23.374;2023-02-11T05:57:40;-11.20;85.02
77247;SHT35;66279;42.820;23.374;2023-02-11T06:00:07;-11.14;84.33
77247;SHT35;66279;42.820;23.374;2023-02-11T06:02:33;-11.11;84.03
77247;SHT35;66279;42.820;23.374;2023-02-11T06:04:58;-11.11;83.61
77247;SHT35;66279;42.820;23.374;2023-02-11T06:07:24;-11.09;83.07
77247;SHT35;66279;42.820;23.374;2023-02-11T06:09:49;-11.01;83.24
77247;SHT35;66279;42.820;23.374;2023-02-11T06:12:15;-10.91;82.98
77247;SHT35;66279;42.820;23.374;2023-02-11T06:14:40;-10.78;83.05
77247;SHT35;66279;42.820;23.374;2023-02-11T06:17:06;-10.65;83.43
77247;SHT35;66279;42.820;23.374;2023-02-11T06:19:31;-10.56;83.75
77247;SHT35;66279;42.820;23.374;2023-02-11T06:21:58;-10.40;84.11
77247;SHT35;66279;42.820;23.374;2023-02-11T06:24:24;-10.18;84.03
77247;SHT35;66279;42.820;23.374;2023-02-11T06:26:50;-9.99;83.57
77247;SHT35;66279;42.820;23.374;2023-02-11T06:29:15;-9.67;83.69
77247;SHT35;66279;42.820;23.374;2023-02-11T06:31:41;-9.37;82.29
77247;SHT35;66279;42.820;23.374;2023-02-11T06:34:08;-9.15;82.02
77247;SHT35;66279;42.820;23.374;2023-02-11T06:36:35;-8.89;81.37
77247;SHT35;66279;42.820;23.374;2023-02-11T06:39:01;-8.79;81.60
77247;SHT35;66279;42.820;23.374;2023-02-11T06:41:27;-8.64;81.93
77247;SHT35;66279;42.820;23.374;2023-02-11T06:43:53;-8.48;81.47
77247;SHT35;66279;42.820;23.374;2023-02-11T06:46:18;-8.31;81.56
77247;SHT35;66279;42.820;23.374;2023-02-11T06:48:44;-8.19;81.72
77247;SHT35;66279;42.820;23.374;2023-02-11T06:51:11;-8.13;80.75
77247;SHT35;66279;42.820;23.374;2023-02-11T06:53:43;-7.99;80.83
77247;SHT35;66279;42.820;23.374;2023-02-11T06:56:11;-7.88;80.04
77247;SHT35;66279;42.820;23.374;2023-02-11T06:58:37;-7.68;80.11
77247;SHT35;66279;42.820;23.374;2023-02-11T07:01:08;-7.52;79.71
77247;SHT35;66279;42.820;23.374;2023-02-11T07:03:35;-7.23;77.92
77247;SHT35;66279;42.820;23.374;2023-02-11T07:06:05;-7.03;78.03
77247;SHT35;66279;42.820;23.374;2023-02-11T07:08:35;-6.79;78.13
77247;SHT35;66279;42.820;23.374;2023-02-11T07:11:18;-6.48;77.40
77247;SHT35;66279;42.820;23.374;2023-02-11T07:13:45;-6.28;76.61
77247;SHT35;66279;42.820;23.374;2023-02-11T07:16:13;-6.00;75.72
77247;SHT35;66279;42.820;23.374;2023-02-11T07:18:38;-5.79;75.69
77247;SHT35;66279;42.820;23.374;2023-02-11T07:21:10;-5.60;74.71
77247;SHT35;66279;42.820;23.374;2023-02-11T07:23:36;-5.60;74.10
77247;SHT35;66279;42.820;23.374;2023-02-11T07:26:03;-5.35;73.33
77247;SHT35;66279;42.820;23.374;2023-02-11T07:28:29;-5.12;73.17
77247;SHT35;66279;42.820;23.374;2023-02-11T07:30:54;-4.89;72.19
77247;SHT35;66279;42.820;23.374;2023-02-11T07:33:20;-4.69;69.98
77247;SHT35;66279;42.820;23.374;2023-02-11T07:35:46;-4.49;69.52
77247;SHT35;66279;42.820;23.374;2023-02-11T07:38:11;-4.28;68.13
77247;SHT35;66279;42.820;23.374;2023-02-11T07:40:37;-4.09;66.75
77247;SHT35;66279;42.820;23.374;2023-02-11T07:43:02;-3.94;67.43
77247;SHT35;66279;42.820;23.374;2023-02-11T07:45:28;-3.88;68.42
77247;SHT35;66279;42.820;23.374;2023-02-11T07:47:53;-3.70;67.71
77247;SHT35;66279;42.820;23.374;2023-02-11T07:50:19;-3.59;67.37
77247;SHT35;66279;42.820;23.374;2023-02-11T07:52:44;-3.56;65.41
77247;SHT35;66279;42.820;23.374;2023-02-11T07:55:10;-3.35;65.38
77247;SHT35;66279;42.820;23.374;2023-02-11T07:57:36;-3.13;65.51
77247;SHT35;66279;42.820;23.374;2023-02-11T08:00:03;-2.92;64.19
77247;SHT35;66279;42.820;23.374;2023-02-11T08:02:29;-2.68;65.55
77247;SHT35;66279;42.820;23.374;2023-02-11T08:04:54;-2.56;62.85
77247;SHT35;66279;42.820;23.374;2023-02-11T08:07:20;-2.36;64.23
77247;SHT35;66279;42.820;23.374;2023-02-11T08:09:46;-2.18;64.35
77247;SHT35;66279;42.820;23.374;2023-02-11T08:12:11;-2.12;64.43
77247;SHT35;66279;42.820;23.374;2023-02-11T08:14:37;-2.09;63.39
77247;SHT35;66279;42.820;23.374;2023-02-11T08:17:03;-1.99;63.66
77247;SHT35;66279;42.820;23.374;2023-02-11T08:19:28;-1.92;63.45
77247;SHT35;66279;42.820;23.374;2023-02-11T08:21:55;-1.64;62.33
77247;SHT35;66279;42.820;23.374;2023-02-11T08:24:21;-1.32;61.70
77247;SHT35;66279;42.820;23.374;2023-02-11T08:26:47;-1.51;59.95
77247;SHT35;66279;42.820;23.374;2023-02-11T08:29:14;-1.32;60.35
77247;SHT35;66279;42.820;23.374;2023-02-11T08:31:42;-1.25;59.01
77247;SHT35;66279;42.820;23.374;2023-02-11T08:34:09;-1.10;57.56
77247;SHT35;66279;42.820;23.374;2023-02-11T08:36:37;-0.91;60.51
77247;SHT35;66279;42.820;23.374;2023-02-11T08:39:05;-0.53;59.20
77247;SHT35;66279;42.820;23.374;2023-02-11T08:41:33;-0.45;57.44
77247;SHT35;66279;42.820;23.374;2023-02-11T08:43:58;-0.45;56.19
77247;SHT35;66279;42.820;23.374;2023-02-11T08:46:24;-0.51;55.70
77247;SHT35;66279;42.820;23.374;2023-02-11T08:48:50;-0.13;56.96
77247;SHT35;66279;42.820;23.374;2023-02-11T08:51:25;0.12;55.73
77247;SHT35;66279;42.820;23.374;2023-02-11T08:53:52;0.24;55.74
77247;SHT35;66279;42.820;23.374;2023-02-11T08:56:19;0.65;53.70
77247;SHT35;66279;42.820;23.374;2023-02-11T08:58:45;0.82;55.89
77247;SHT35;66279;42.820;23.374;2023-02-11T09:01:13;0.96;52.78
77247;SHT35;66279;42.820;23.374;2023-02-11T09:03:38;1.28;57.63
77247;SHT35;66279;42.820;23.374;2023-02-11T09:06:06;1.45;51.98
77247;SHT35;66279;42.820;23.374;2023-02-11T09:08:36;1.95;53.92
77247;SHT35;66279;42.820;23.374;2023-02-11T09:11:02;1.78;51.44
77247;SHT35;66279;42.820;23.374;2023-02-11T09:13:28;1.90;55.25
77247;SHT35;66279;42.820;23.374;2023-02-11T09:15:54;1.61;51.21
77247;SHT35;66279;42.820;23.374;2023-02-11T09:18:20;1.42;51.08
77247;SHT35;66279;42.820;23.374;2023-02-11T09:20:45;1.44;49.54
77247;SHT35;66279;42.820;23.374;2023-02-11T09:23:11;1.79;48.71
77247;SHT35;66279;42.820;23.374;2023-02-11T09:25:40;2.27;51.02
77247;SHT35;66279;42.820;23.374;2023-02-11T09:28:06;2.26;49.74
77247;SHT35;66279;42.820;23.374;2023-02-11T09:30:32;2.02;47.68
77247;SHT35;66279;42.820;23.374;2023-02-11T09:32:58;1.41;47.46
77247;SHT35;66279;42.820;23.374;2023-02-11T09:35:23;1.42;49.64
77247;SHT35;66279;42.820;23.374;2023-02-11T09:37:49;2.20;53.64
77247;SHT35;66279;42.820;23.374;2023-02-11T09:40:15;2.65;50.58
77247;SHT35;66279;42.820;23.374;2023-02-11T09:42:59;3.16;49.77
77247;SHT35;66279;42.820;23.374;2023-02-11T09:45:28;2.98;48.71
77247;SHT35;66279;42.820;23.374;2023-02-11T09:48:12;3.05;49.75
77247;SHT35;66279;42.820;23.374;2023-02-11T09:50:42;3.20;52.87
77247;SHT35;66279;42.820;23.374;2023-02-11T09:53:21;3.30;45.78
77247;SHT35;66279;42.820;23.374;2023-02-11T09:55:51;3.34;47.77
77247;SHT35;66279;42.820;23.374;2023-02-11T09:58:33;3.37;46.75
77247;SHT35;66279;42.820;23.374;2023-02-11T10:19:53;3.99;48.04
77247;SHT35;66279;42.820;23.374;2023-02-11T10:25:14;4.23;53.53
77247;SHT35;66279;42.820;23.374;2023-02-11T10:27:41;4.36;46.37
77247;SHT35;66279;42.820;23.374;2023-02-11T10:30:25;4.47;46.11
77247;SHT35;66279;42.820;23.374;2023-02-11T10:32:58;4.28;46.88
77247;SHT35;66279;42.820;23.374;2023-02-11T10:35:25;4.33;46.77
77247;SHT35;66279;42.820;23.374;2023-02-11T10:37:52;3.95;47.44
77247;SHT35;66279;42.820;23.374;2023-02-11T10:40:23;4.39;45.70
77247;SHT35;66279;42.820;23.374;2023-02-11T10:42:52;4.80;46.09
77247;SHT35;66279;42.820;23.374;2023-02-11T10:45:23;4.90;45.87
77247;SHT35;66279;42.820;23.374;2023-02-11T10:47:50;4.91;46.39
77247;SHT35;66279;42.820;23.374;2023-02-11T10:50:25;5.07;42.59
77247;SHT35;66279;42.820;23.374;2023-02-11T10:52:51;5.25;46.85
77247;SHT35;66279;42.820;23.374;2023-02-11T10:55:20;5.62;45.99
77247;SHT35;66279;42.820;23.374;2023-02-11T10:58:00;5.60;44.89
77247;SHT35;66279;42.820;23.374;2023-02-11T11:00:37;5.49;45.92
77247;SHT35;66279;42.820;23.374;2023-02-11T11:03:23;5.59;42.41
77247;SHT35;66279;42.820;23.374;2023-02-11T11:06:01;5.96;42.40
77247;SHT35;66279;42.820;23.374;2023-02-11T11:11:07;5.79;42.25
77247;SHT35;66279;42.820;23.374;2023-02-11T11:13:55;6.37;42.63
77247;SHT35;66279;42.820;23.374;2023-02-11T11:16:30;6.48;42.10
77247;SHT35;66279;42.820;23.374;2023-02-11T11:21:51;6.49;38.93
77247;SHT35;66279;42.820;23.374;2023-02-11T11:24:25;6.21;42.71
77247;SHT35;66279;42.820;23.374;2023-02-11T11:26:57;6.08;39.25
77247;SHT35;66279;42.820;23.374;2023-02-11T11:32:00;6.44;40.01
77247;SHT35;66279;42.820;23.374;2023-02-11T11:34:32;6.61;38.58
77247;SHT35;66279;42.820;23.374;2023-02-11T11:37:00;7.17;38.77
77247;SHT35;66279;42.820;23.374;2023-02-11T11:39:29;6.79;43.03
77247;SHT35;66279;42.820;23.374;2023-02-11T11:42:02;6.68;37.43
77247;SHT35;66279;42.820;23.374;2023-02-11T11:44:35;5.96;38.44
77247;SHT35;66279;42.820;23.374;2023-02-11T11:49:44;6.58;40.65
77247;SHT35;66279;42.820;23.374;2023-02-11T11:52:20;6.73;38.16
77247;SHT35;66279;42.820;23.374;2023-02-11T11:57:42;6.82;36.03
77247;SHT35;66279;42.820;23.374;2023-02-11T12:00:16;6.99;36.67
77247;SHT35;66279;42.820;23.374;2023-02-11T12:03:02;7.10;38.81
77247;SHT35;66279;42.820;23.374;2023-02-11T12:13:39;7.01;37.19
77247;SHT35;66279;42.820;23.374;2023-02-11T12:16:24;6.50;37.11
77247;SHT35;66279;42.820;23.374;2023-02-11T12:19:02;6.45;36.01
77247;SHT35;66279;42.820;23.374;2023-02-11T12:26:39;6.90;34.43
77247;SHT35;66279;42.820;23.374;2023-02-11T12:29:22;7.03;36.35
77247;SHT35;66279;42.820;23.374;2023-02-11T12:42:49;8.17;34.49
77247;SHT35;66279;42.820;23.374;2023-02-11T12:56:18;8.13;31.32
77247;SHT35;66279;42.820;23.374;2023-02-11T12:58:46;7.76;38.09
77247;SHT35;66279;42.820;23.374;2023-02-11T13:01:22;8.53;39.52
77247;SHT35;66279;42.820;23.374;2023-02-11T13:04:15;8.53;35.61
77247;SHT35;66279;42.820;23.374;2023-02-11T13:06:51;8.26;32.49
77247;SHT35;66279;42.820;23.374;2023-02-11T13:09:22;8.46;32.21
77247;SHT35;66279;42.820;23.374;2023-02-11T13:11:50;8.37;35.34
77247;SHT35;66279;42.820;23.374;2023-02-11T13:14:33;8.16;33.16
77247;SHT35;66279;42.820;23.374;2023-02-11T13:17:04;8.17;33.36
77247;SHT35;66279;42.820;23.374;2023-02-11T13:19:49;7.85;33.29
77247;SHT35;66279;42.820;23.374;2023-02-11T13:22:19;7.93;33.55
77247;SHT35;66279;42.820;23.374;2023-02-11T13:30:17;7.83;33.48
77247;SHT35;66279;42.820;23.374;2023-02-11T13:37:59;7.17;33.69
77247;SHT35;66279;42.820;23.374;2023-02-11T13:40:33;7.52;37.43
77247;SHT35;66279;42.820;23.374;2023-02-11T13:43:02;7.54;34.69
77247;SHT35;66279;42.820;23.374;2023-02-11T13:45:44;7.38;34.17
77247;SHT35;66279;42.820;23.374;2023-02-11T13:48:19;7.32;35.66
77247;SHT35;66279;42.820;23.374;2023-02-11T13:50:48;7.50;35.60
77247;SHT35;66279;42.820;23.374;2023-02-11T13:53:15;7.44;34.40
77247;SHT35;66279;42.820;23.374;2023-02-11T13:55:46;7.61;34.89
77247;SHT35;66279;42.820;23.374;2023-02-11T14:00:53;7.50;37.96
77247;SHT35;66279;42.820;23.374;2023-02-11T14:11:44;7.37;35.63
77247;SHT35;66279;42.820;23.374;2023-02-11T14:14:29;7.13;34.64
77247;SHT35;66279;42.820;23.374;2023-02-11T14:19:41;6.95;35.30
77247;SHT35;66279;42.820;23.374;2023-02-11T14:24:59;6.37;35.51
77247;SHT35;66279;42.820;23.374;2023-02-11T14:42:00;5.77;36.59
77247;SHT35;66279;42.820;23.374;2023-02-11T14:44:29;5.74;37.23
77247;SHT35;66279;42.820;23.374;2023-02-11T14:46:55;5.62;37.94
77247;SHT35;66279;42.820;23.374;2023-02-11T14:49:28;5.50;38.33
77247;SHT35;66279;42.820;23.374;2023-02-11T14:52:01;5.52;38.95
77247;SHT35;66279;42.820;23.374;2023-02-11T14:54:28;5.53;38.78
77247;SHT35;66279;42.820;23.374;2023-02-11T14:57:12;5.53;39.23
77247;SHT35;66279;42.820;23.374;2023-02-11T14:59:38;5.40;39.64
77247;SHT35;66279;42.820;23.374;2023-02-11T15:02:22;5.34;40.00
77247;SHT35;66279;42.820;23.374;2023-02-11T15:04:48;5.18;39.92
77247;SHT35;66279;42.820;23.374;2023-02-11T15:07:14;5.05;40.53
77247;SHT35;66279;42.820;23.374;2023-02-11T15:09:43;4.88;40.78
77247;SHT35;66279;42.820;23.374;2023-02-11T15:14:44;4.61;41.56
77247;SHT35;66279;42.820;23.374;2023-02-11T15:17:14;4.49;41.99
77247;SHT35;66279;42.820;23.374;2023-02-11T15:19:44;4.40;42.07
77247;SHT35;66279;42.820;23.374;2023-02-11T15:22:17;4.28;41.77
77247;SHT35;66279;42.820;23.374;2023-02-11T15:25:16;4.16;42.54
77247;SHT35;66279;42.820;23.374;2023-02-11T15:27:48;4.15;43.11
77247;SHT35;66279;42.820;23.374;2023-02-11T15:32:47;3.98;43.82
77247;SHT35;66279;42.820;23.374;2023-02-11T15:35:13;3.95;43.73
77247;SHT35;66279;42.820;23.374;2023-02-11T15:37:39;3.91;44.11
77247;SHT35;66279;42.820;23.374;2023-02-11T15:40:15;3.82;44.30
77247;SHT35;66279;42.820;23.374;2023-02-11T15:43:05;3.74;44.08
77247;SHT35;66279;42.820;23.374;2023-02-11T15:45:38;3.67;44.88
77247;SHT35;66279;42.820;23.374;2023-02-11T15:48:15;3.50;45.26
77247;SHT35;66279;42.820;23.374;2023-02-11T15:50:42;3.39;45.00
77247;SHT35;66279;42.820;23.374;2023-02-11T15:53:26;3.18;45.82
77247;SHT35;66279;42.820;23.374;2023-02-11T15:56:02;3.05;46.85
77247;SHT35;66279;42.820;23.374;2023-02-11T15:58:28;2.89;47.05
77247;SHT35;66279;42.820;23.374;2023-02-11T16:00:54;2.74;47.38
77247;SHT35;66279;42.820;23.374;2023-02-11T16:03:26;2.61;47.39
77247;SHT35;66279;42.820;23.374;2023-02-11T16:06:13;2.44;47.81
77247;SHT35;66279;42.820;23.374;2023-02-11T16:08:39;2.09;50.47
77247;SHT35;66279;42.820;23.374;2023-02-11T16:11:24;1.86;50.05
77247;SHT35;66279;42.820;23.374;2023-02-11T16:13:49;1.63;50.96
77247;SHT35;66279;42.820;23.374;2023-02-11T16:16:33;1.08;52.06
77247;SHT35;66279;42.820;23.374;2023-02-11T16:19:00;0.84;52.38
77247;SHT35;66279;42.820;23.374;2023-02-11T16:21:33;0.65;53.63
77247;SHT35;66279;42.820;23.374;2023-02-11T16:24:05;0.25;55.42
77247;SHT35;66279;42.820;23.374;2023-02-11T16:26:39;0.07;56.29
77247;SHT35;66279;42.820;23.374;2023-02-11T16:29:17;-0.16;58.29
77247;SHT35;66279;42.820;23.374;2023-02-11T16:31:46;-0.23;57.53
77247;SHT35;66279;42.820;23.374;2023-02-11T16:34:17;-0.34;57.73
77247;SHT35;66279;42.820;23.374;2023-02-11T16:36:44;-0.47;57.52
77247;SHT35;66279;42.820;23.374;2023-02-11T16:39:10;-0.45;57.85
77247;SHT35;66279;42.820;23.374;2023-02-11T16:41:35;-0.45;57.61
77247;SHT35;66279;42.820;23.374;2023-02-11T16:44:01;-0.54;59.21
77247;SHT35;66279;42.820;23.374;2023-02-11T16:46:27;-0.57;59.22
77247;SHT35;66279;42.820;23.374;2023-02-11T16:48:54;-0.65;59.34
77247;SHT35;66279;42.820;23.374;2023-02-11T16:51:20;-0.75;59.40
77247;SHT35;66279;42.820;23.374;2023-02-11T16:53:45;-0.89;59.17
77247;SHT35;66279;42.820;23.374;2023-02-11T16:56:16;-0.98;59.17
77247;SHT35;66279;42.820;23.374;2023-02-11T16:58:42;-0.99;59.94
77247;SHT35;66279;42.820;23.374;2023-02-11T17:01:09;-1.08;59.36
77247;SHT35;66279;42.820;23.374;2023-02-11T17:03:35;-1.12;60.19
77247;SHT35;66279;42.820;23.374;2023-02-11T17:06:09;-1.25;60.27
77247;SHT35;66279;42.820;23.374;2023-02-11T17:08:35;-1.36;61.33
77247;SHT35;66279;42.820;23.374;2023-02-11T17:11:01;-1.46;61.86
77247;SHT35;66279;42.820;23.374;2023-02-11T17:13:27;-1.54;61.81
77247;SHT35;66279;42.820;23.374;2023-02-11T17:15:53;-1.56;62.44
77247;SHT35;66279;42.820;23.374;2023-02-11T17:18:18;-1.64;63.22
77247;SHT35;66279;42.820;23.374;2023-02-11T17:20:44;-1.64;62.17
77247;SHT35;66279;42.820;23.374;2023-02-11T17:23:10;-1.74;62.07
77247;SHT35;66279;42.820;23.374;2023-02-11T17:25:35;-1.79;62.58
77247;SHT35;66279;42.820;23.374;2023-02-11T17:28:05;-1.89;63.26
77247;SHT35;66279;42.820;23.374;2023-02-11T17:30:31;-2.03;64.19
77247;SHT35;66279;42.820;23.374;2023-02-11T17:32:57;-2.09;64.01
77247;SHT35;66279;42.820;23.374;2023-02-11T17:35:22;-2.12;64.47
77247;SHT35;66279;42.820;23.374;2023-02-11T17:37:48;-2.23;65.02
77247;SHT35;66279;42.820;23.374;2023-02-11T17:40:14;-2.29;66.24
77247;SHT35;66279;42.820;23.374;2023-02-11T17:42:39;-2.32;65.66
77247;SHT35;66279;42.820;23.374;2023-02-11T17:45:06;-2.35;65.53
77247;SHT35;66279;42.820;23.374;2023-02-11T17:47:31;-2.46;66.52
77247;SHT35;66279;42.820;23.374;2023-02-11T17:49:57;-2.53;65.99
77247;SHT35;66279;42.820;23.374;2023-02-11T17:52:23;-2.57;66.29
77247;SHT35;66279;42.820;23.374;2023-02-11T17:54:50;-2.61;66.43
77247;SHT35;66279;42.820;23.374;2023-02-11T17:57:16;-2.68;66.24
77247;SHT35;66279;42.820;23.374;2023-02-11T17:59:42;-2.74;66.87
77247;SHT35;66279;42.820;23.374;2023-02-11T18:02:10;-2.73;66.79
77247;SHT35;66279;42.820;23.374;2023-02-11T18:04:36;-2.74;66.44
77247;SHT35;66279;42.820;23.374;2023-02-11T18:07:02;-2.95;68.32